AirNav   Everest Fuels
 
 561 users online  

3IL8 Kuntz RLA Airport
Gridley, Illinois, USA

GOING TO GRIDLEY?


FAA INFORMATION EFFECTIVE 18 JUNE 2020

Location

FAA Identifier: 3IL8
Lat/Long: 40-41-52.6000N 088-56-49.2000W
40-41.876667N 088-56.820000W
40.6979444,-88.9470000
(estimated)
Elevation: 760 ft. / 232 m
From city: 4 miles SW of GRIDLEY, IL
Time zone: UTC -5 (UTC -6 during Standard Time)
Zip code: 61738

Airport Operations

Airport use: Private use. Permission required prior to landing
Activation date: 12/2018
Control tower: no
ARTCC: CHICAGO CENTER
FSS: KANKAKEE FLIGHT SERVICE STATION
Attendance: 
Wind indicator: yes
Segmented circle: no

Airport Communications

WX AWOS-3PT at BMI (13 nm S): 135.35 (309-661-9478)
WX AWOS-3 at PNT (20 nm NE): 119.675 (815-844-0923)

Nearby radio navigation aids

VOR radial/distance  VOR name  Freq  Var
PNTr230/12.2PONTIAC VOR/DME109.6003E
BMIr354/13.0BLOOMINGTON VOR/DME108.2003E
RBSr279/36.3ROBERTS VOR/DME116.8002E
PIAr084/38.5PEORIA VORTAC115.2004E

 
NDB name  Hdg/Dist  Freq  Var  ID
EGROW341/8.933403WLH .-.. ....
ABRAHAM029/36.932900EAAA .- .- .-

Airport Services

Runway Information

Runway 18/36

Dimensions: 2800 x 100 ft. / 853 x 30 m
Surface: turf
RUNWAY 18  RUNWAY 36
Traffic pattern: leftleft
Displaced threshold: 600 ft.no

Airport Ownership and Management from official FAA records

Ownership: Privately-owned
Owner: RUSSELL KUNTZ
17045 E. 2850 N.
GRIDLEY, IL 61744
Phone 309-527-5629
Manager: RUSSELL KUNTZ
17045 E. 2850 N.
GRIDLEY, IL 61744
Phone 309-527-5629

Airport Operational Statistics

Aircraft based on the field: 1
Single engine airplanes: 1
    

Additional Remarks

OWNER REQ ARPT BE CHARTED.

Instrument Procedures

There are no published instrument procedures at 3IL8.

Some nearby airports with instrument procedures:

KBMI - Central Illinois Regional Airport at Bloomington-Normal (13 nm S)
KPNT - Pontiac Municipal Airport (20 nm NE)
C75 - Marshall County Airport (28 nm NW)
3MY - Mount Hawley Auxiliary Airport (31 nm W)
KPIA - General Downing - Peoria International Airport (34 nm W)
 
Loc | Ops | Rwys | IFR | FBO | Links
Com | Nav | Svcs | Stats | Notes
Aerial photo
No photo
 
Airport distance calculator
Flying to Kuntz RLA Airport? Find the distance to fly.

From to 3IL8

Sunrise and sunset
Times for 12-Jul-2020
 Local
(UTC-5)
 Zulu
(UTC)
Morning civil twilight05:0410:04
Sunrise05:3710:37
Sunset20:2601:26
Evening civil twilight20:5901:59

Current date and time
Zulu (UTC)  13-Jul-2020 04:57:25
Local (UTC-5)  12-Jul-2020 23:57:25
 
METAR
KBMI 
14nm S 
130356Z AUTO 08006KT 10SM CLR 19/17 A2996 RMK AO2 SLP138 T01940172
KPNT 
19nm NE 
130435Z AUTO 06003KT 10SM CLR 18/18 A2997 RMK AO2 T01800176
KC75 
28nm NW 
130435Z AUTO 09003KT 10SM CLR 20/17 A2995 RMK AO2 T01950168
TAF
KBMI 
14nm S 
121908Z 1219/1318 01011KT P6SM VCSH SCT040 FM130000 03006KT P6SM FEW120
NOTAMs
Click for the latest NOTAMs
NOTAMs are issued by the DoD/FAA and will open in a separate window not controlled by AirNav.

 

 
 

Would you like to see your business listed on this page?

 If your business provides an interesting product or service to pilots, flight crews, aircraft, or users of the Kuntz RLA Airport, you should consider listing it here.  To start the listing process, click on the button below
 
Add a business
 

Other Pages about Kuntz RLA Airport

Update a link
 
Copyright © AirNav, LLC. All rights reserved. Privacy Policy  Contact